sensor_id;sensor_type;location;lat;lon;timestamp;temperature;humidity
2162;DHT22;1087;50.226;8.682;2023-03-01T00:01:50;3.10;99.90
2162;DHT22;1087;50.226;8.682;2023-03-01T00:04:15;3.10;99.90
2162;DHT22;1087;50.226;8.682;2023-03-01T00:06:42;3.30;99.90
2162;DHT22;1087;50.226;8.682;2023-03-01T00:09:11;3.30;99.90
2162;DHT22;1087;50.226;8.682;2023-03-01T00:11:37;3.20;99.90
2162;DHT22;1087;50.226;8.682;2023-03-01T00:14:03;3.10;99.90
2162;DHT22;1087;50.226;8.682;2023-03-01T00:16:35;3.10;99.90
2162;DHT22;1087;50.226;8.682;2023-03-01T00:19:01;2.90;99.90
2162;DHT22;1087;50.226;8.682;2023-03-01T00:21:27;2.70;99.90
2162;DHT22;1087;50.226;8.682;2023-03-01T00:23:53;2.80;99.90
2162;DHT22;1087;50.226;8.682;2023-03-01T00:26:23;3.00;99.90
2162;DHT22;1087;50.226;8.682;2023-03-01T00:28:49;3.00;99.90
2162;DHT22;1087;50.226;8.682;2023-03-01T00:31:18;2.90;99.90
2162;DHT22;1087;50.226;8.682;2023-03-01T00:33:44;2.90;99.90
2162;DHT22;1087;50.226;8.682;2023-03-01T00:36:11;2.90;99.90
2162;DHT22;1087;50.226;8.682;2023-03-01T00:38:38;2.90;99.90
2162;DHT22;1087;50.226;8.682;2023-03-01T00:41:06;2.80;99.90
2162;DHT22;1087;50.226;8.682;2023-03-01T00:43:32;2.90;99.90
2162;DHT22;1087;50.226;8.682;2023-03-01T00:46:06;3.00;99.90
2162;DHT22;1087;50.226;8.682;2023-03-01T00:48:32;2.80;99.90
2162;DHT22;1087;50.226;8.682;2023-03-01T00:51:05;3.00;99.90
2162;DHT22;1087;50.226;8.682;2023-03-01T00:53:30;3.00;99.90
2162;DHT22;1087;50.226;8.682;2023-03-01T00:55:57;3.00;99.90
2162;DHT22;1087;50.226;8.682;2023-03-01T00:58:23;3.10;99.90
2162;DHT22;1087;50.226;8.682;2023-03-01T01:00:49;3.00;99.90
2162;DHT22;1087;50.226;8.682;2023-03-01T01:03:14;3.00;99.90
2162;DHT22;1087;50.226;8.682;2023-03-01T01:05:41;3.00;99.90
2162;DHT22;1087;50.226;8.682;2023-03-01T01:08:06;3.00;99.90
2162;DHT22;1087;50.226;8.682;2023-03-01T01:10:34;3.00;99.90
2162;DHT22;1087;50.226;8.682;2023-03-01T01:12:59;3.00;99.90
2162;DHT22;1087;50.226;8.682;2023-03-01T01:15:25;3.20;99.90
2162;DHT22;1087;50.226;8.682;2023-03-01T01:17:51;3.20;99.90
2162;DHT22;1087;50.226;8.682;2023-03-01T01:20:16;3.10;99.90
2162;DHT22;1087;50.226;8.682;2023-03-01T01:22:42;2.90;99.90
2162;DHT22;1087;50.226;8.682;2023-03-01T01:25:08;3.00;99.90
2162;DHT22;1087;50.226;8.682;2023-03-01T01:27:34;3.10;99.90
2162;DHT22;1087;50.226;8.682;2023-03-01T01:29:59;3.20;99.90
2162;DHT22;1087;50.226;8.682;2023-03-01T01:32:25;3.10;99.90
2162;DHT22;1087;50.226;8.682;2023-03-01T01:34:50;2.90;99.90
2162;DHT22;1087;50.226;8.682;2023-03-01T01:37:16;2.90;99.90
2162;DHT22;1087;50.226;8.682;2023-03-01T01:39:41;2.80;99.90
2162;DHT22;1087;50.226;8.682;2023-03-01T01:42:15;2.70;99.90
2162;DHT22;1087;50.226;8.682;2023-03-01T01:44:42;2.70;99.90
2162;DHT22;1087;50.226;8.682;2023-03-01T01:47:15;2.60;99.90
2162;DHT22;1087;50.226;8.682;2023-03-01T01:49:55;2.60;99.90
2162;DHT22;1087;50.226;8.682;2023-03-01T01:52:27;2.50;99.90
2162;DHT22;1087;50.226;8.682;2023-03-01T01:55:02;2.50;99.90
2162;DHT22;1087;50.226;8.682;2023-03-01T01:57:41;2.60;99.90
2162;DHT22;1087;50.226;8.682;2023-03-01T02:02:41;2.70;99.90
2162;DHT22;1087;50.226;8.682;2023-03-01T02:07:39;2.60;99.90
2162;DHT22;1087;50.226;8.682;2023-03-01T02:10:06;2.60;99.90
2162;DHT22;1087;50.226;8.682;2023-03-01T02:12:32;2.60;99.90
2162;DHT22;1087;50.226;8.682;2023-03-01T02:14:58;2.70;99.90
2162;DHT22;1087;50.226;8.682;2023-03-01T02:17:24;2.80;99.90
2162;DHT22;1087;50.226;8.682;2023-03-01T02:20:22;2.70;99.90
2162;DHT22;1087;50.226;8.682;2023-03-01T02:22:48;2.80;99.90
2162;DHT22;1087;50.226;8.682;2023-03-01T02:27:57;2.70;99.90
2162;DHT22;1087;50.226;8.682;2023-03-01T02:30:25;2.80;99.90
2162;DHT22;1087;50.226;8.682;2023-03-01T02:32:52;2.70;99.90
2162;DHT22;1087;50.226;8.682;2023-03-01T02:35:19;2.50;99.90
2162;DHT22;1087;50.226;8.682;2023-03-01T02:37:45;2.60;99.90
2162;DHT22;1087;50.226;8.682;2023-03-01T02:40:14;2.50;99.90
2162;DHT22;1087;50.226;8.682;2023-03-01T02:43:02;2.60;99.90
2162;DHT22;1087;50.226;8.682;2023-03-01T02:45:29;2.60;99.90
2162;DHT22;1087;50.226;8.682;2023-03-01T02:47:56;2.70;99.90
2162;DHT22;1087;50.226;8.682;2023-03-01T02:50:41;2.80;99.90
2162;DHT22;1087;50.226;8.682;2023-03-01T02:53:30;2.90;99.90
2162;DHT22;1087;50.226;8.682;2023-03-01T02:55:58;2.80;99.90
2162;DHT22;1087;50.226;8.682;2023-03-01T02:58:24;3.00;99.90
2162;DHT22;1087;50.226;8.682;2023-03-01T03:00:50;2.80;99.90
2162;DHT22;1087;50.226;8.682;2023-03-01T03:03:20;2.70;99.90
2162;DHT22;1087;50.226;8.682;2023-03-01T03:05:46;2.50;99.90
2162;DHT22;1087;50.226;8.682;2023-03-01T03:08:12;2.60;99.90
2162;DHT22;1087;50.226;8.682;2023-03-01T03:10:40;2.60;99.90
2162;DHT22;1087;50.226;8.682;2023-03-01T03:13:17;2.70;99.90
2162;DHT22;1087;50.226;8.682;2023-03-01T03:15:43;2.70;99.90
2162;DHT22;1087;50.226;8.682;2023-03-01T03:18:12;2.60;99.90
2162;DHT22;1087;50.226;8.682;2023-03-01T03:20:39;2.60;99.90
2162;DHT22;1087;50.226;8.682;2023-03-01T03:23:05;2.60;99.90
2162;DHT22;1087;50.226;8.682;2023-03-01T03:25:30;2.50;99.90
2162;DHT22;1087;50.226;8.682;2023-03-01T03:27:56;2.40;99.90
2162;DHT22;1087;50.226;8.682;2023-03-01T03:30:28;2.50;99.90
2162;DHT22;1087;50.226;8.682;2023-03-01T03:32:55;2.40;99.90
2162;DHT22;1087;50.226;8.682;2023-03-01T03:35:27;2.60;99.90
2162;DHT22;1087;50.226;8.682;2023-03-01T03:37:55;2.60;99.90
2162;DHT22;1087;50.226;8.682;2023-03-01T03:40:46;2.30;99.90
2162;DHT22;1087;50.226;8.682;2023-03-01T03:43:15;2.40;99.90
2162;DHT22;1087;50.226;8.682;2023-03-01T03:45:41;2.40;99.90
2162;DHT22;1087;50.226;8.682;2023-03-01T03:48:08;2.40;99.90
2162;DHT22;1087;50.226;8.682;2023-03-01T03:50:34;2.30;99.90
2162;DHT22;1087;50.226;8.682;2023-03-01T03:53:01;2.20;99.90
2162;DHT22;1087;50.226;8.682;2023-03-01T03:55:27;2.20;99.90
2162;DHT22;1087;50.226;8.682;2023-03-01T03:57:58;2.20;99.90
2162;DHT22;1087;50.226;8.682;2023-03-01T04:00:26;2.20;99.90
2162;DHT22;1087;50.226;8.682;2023-03-01T04:02:52;2.10;99.90
2162;DHT22;1087;50.226;8.682;2023-03-01T04:05:21;2.10;99.90
2162;DHT22;1087;50.226;8.682;2023-03-01T04:07:47;2.20;99.90
2162;DHT22;1087;50.226;8.682;2023-03-01T04:10:16;2.10;99.90
2162;DHT22;1087;50.226;8.682;2023-03-01T04:12:42;1.90;99.90
2162;DHT22;1087;50.226;8.682;2023-03-01T04:15:10;1.70;99.90
2162;DHT22;1087;50.226;8.682;2023-03-01T04:17:43;1.70;99.90
2162;DHT22;1087;50.226;8.682;2023-03-01T04:20:11;1.80;99.90
2162;DHT22;1087;50.226;8.682;2023-03-01T04:22:37;1.90;99.90
2162;DHT22;1087;50.226;8.682;2023-03-01T04:25:03;1.80;99.90
2162;DHT22;1087;50.226;8.682;2023-03-01T04:27:34;1.80;99.90
2162;DHT22;1087;50.226;8.682;2023-03-01T04:30:01;1.90;99.90
2162;DHT22;1087;50.226;8.682;2023-03-01T04:32:26;1.90;99.90
2162;DHT22;1087;50.226;8.682;2023-03-01T04:34:52;1.80;99.90
2162;DHT22;1087;50.226;8.682;2023-03-01T04:37:17;2.00;99.90
2162;DHT22;1087;50.226;8.682;2023-03-01T04:39:43;1.90;99.90
2162;DHT22;1087;50.226;8.682;2023-03-01T04:42:19;1.90;99.90
2162;DHT22;1087;50.226;8.682;2023-03-01T04:44:45;2.00;99.90
2162;DHT22;1087;50.226;8.682;2023-03-01T04:47:11;2.10;99.90
2162;DHT22;1087;50.226;8.682;2023-03-01T04:49:36;2.00;99.90
2162;DHT22;1087;50.226;8.682;2023-03-01T04:52:03;2.00;99.90
2162;DHT22;1087;50.226;8.682;2023-03-01T04:54:30;2.00;99.90
2162;DHT22;1087;50.226;8.682;2023-03-01T04:56:56;2.00;99.90
2162;DHT22;1087;50.226;8.682;2023-03-01T04:59:22;2.10;99.90
2162;DHT22;1087;50.226;8.682;2023-03-01T05:01:48;2.10;99.90
2162;DHT22;1087;50.226;8.682;2023-03-01T05:04:14;2.10;99.90
2162;DHT22;1087;50.226;8.682;2023-03-01T05:06:40;2.00;99.90
2162;DHT22;1087;50.226;8.682;2023-03-01T05:09:06;1.90;99.90
2162;DHT22;1087;50.226;8.682;2023-03-01T05:11:32;1.90;99.90
2162;DHT22;1087;50.226;8.682;2023-03-01T05:14:04;1.80;99.90
2162;DHT22;1087;50.226;8.682;2023-03-01T05:16:30;1.90;99.90
2162;DHT22;1087;50.226;8.682;2023-03-01T05:18:56;1.80;99.90
2162;DHT22;1087;50.226;8.682;2023-03-01T05:21:22;1.90;99.90
2162;DHT22;1087;50.226;8.682;2023-03-01T05:23:48;1.80;99.90
2162;DHT22;1087;50.226;8.682;2023-03-01T05:26:15;1.80;99.90
2162;DHT22;1087;50.226;8.682;2023-03-01T05:28:40;1.90;99.90
2162;DHT22;1087;50.226;8.682;2023-03-01T05:31:06;1.80;99.90
2162;DHT22;1087;50.226;8.682;2023-03-01T05:33:36;1.90;99.90
2162;DHT22;1087;50.226;8.682;2023-03-01T05:36:02;1.80;99.90
2162;DHT22;1087;50.226;8.682;2023-03-01T05:38:28;2.00;99.90
2162;DHT22;1087;50.226;8.682;2023-03-01T05:40:53;2.10;99.90
2162;DHT22;1087;50.226;8.682;2023-03-01T05:43:19;2.20;99.90
2162;DHT22;1087;50.226;8.682;2023-03-01T05:45:45;2.20;99.90
2162;DHT22;1087;50.226;8.682;2023-03-01T05:48:11;1.90;99.90
2162;DHT22;1087;50.226;8.682;2023-03-01T05:50:39;2.00;99.90
2162;DHT22;1087;50.226;8.682;2023-03-01T05:53:08;2.10;99.90
2162;DHT22;1087;50.226;8.682;2023-03-01T05:55:35;2.00;99.90
2162;DHT22;1087;50.226;8.682;2023-03-01T05:58:02;2.10;99.90
2162;DHT22;1087;50.226;8.682;2023-03-01T06:00:29;2.20;99.90
2162;DHT22;1087;50.226;8.682;2023-03-01T06:02:56;2.10;99.90
2162;DHT22;1087;50.226;8.682;2023-03-01T06:05:22;1.90;99.90
2162;DHT22;1087;50.226;8.682;2023-03-01T06:07:48;1.90;99.90
2162;DHT22;1087;50.226;8.682;2023-03-01T06:10:14;1.90;99.90
2162;DHT22;1087;50.226;8.682;2023-03-01T06:12:41;1.80;99.90
2162;DHT22;1087;50.226;8.682;2023-03-01T06:15:08;1.70;99.90
2162;DHT22;1087;50.226;8.682;2023-03-01T06:17:38;1.80;99.90
2162;DHT22;1087;50.226;8.682;2023-03-01T06:20:06;1.80;99.90
2162;DHT22;1087;50.226;8.682;2023-03-01T06:22:32;1.50;99.90
2162;DHT22;1087;50.226;8.682;2023-03-01T06:24:57;1.50;99.90
2162;DHT22;1087;50.226;8.682;2023-03-01T06:27:23;1.60;99.90
2162;DHT22;1087;50.226;8.682;2023-03-01T06:29:48;1.30;99.90
2162;DHT22;1087;50.226;8.682;2023-03-01T06:32:14;1.40;99.90
2162;DHT22;1087;50.226;8.682;2023-03-01T06:34:40;1.60;99.90
2162;DHT22;1087;50.226;8.682;2023-03-01T06:37:06;1.70;99.90
2162;DHT22;1087;50.226;8.682;2023-03-01T06:39:32;1.80;99.90
2162;DHT22;1087;50.226;8.682;2023-03-01T06:41:58;2.00;99.90
2162;DHT22;1087;50.226;8.682;2023-03-01T06:44:23;2.10;99.90
2162;DHT22;1087;50.226;8.682;2023-03-01T06:46:49;2.10;99.90
2162;DHT22;1087;50.226;8.682;2023-03-01T06:49:15;2.10;99.90
2162;DHT22;1087;50.226;8.682;2023-03-01T06:51:41;2.10;99.90
2162;DHT22;1087;50.226;8.682;2023-03-01T06:54:07;2.20;99.90
2162;DHT22;1087;50.226;8.682;2023-03-01T06:56:33;2.20;99.90
2162;DHT22;1087;50.226;8.682;2023-03-01T06:58:58;2.20;99.90
2162;DHT22;1087;50.226;8.682;2023-03-01T07:01:24;2.20;99.90
2162;DHT22;1087;50.226;8.682;2023-03-01T07:03:50;2.30;99.90
2162;DHT22;1087;50.226;8.682;2023-03-01T07:06:15;2.40;99.90
2162;DHT22;1087;50.226;8.682;2023-03-01T07:08:41;2.30;99.90
2162;DHT22;1087;50.226;8.682;2023-03-01T07:11:06;2.20;99.90
2162;DHT22;1087;50.226;8.682;2023-03-01T07:13:32;2.20;99.90
2162;DHT22;1087;50.226;8.682;2023-03-01T07:15:58;2.00;99.90
2162;DHT22;1087;50.226;8.682;2023-03-01T07:18:23;2.20;99.90
2162;DHT22;1087;50.226;8.682;2023-03-01T07:20:49;2.50;99.90
2162;DHT22;1087;50.226;8.682;2023-03-01T07:23:14;2.40;99.90
2162;DHT22;1087;50.226;8.682;2023-03-01T07:25:40;2.20;99.90
2162;DHT22;1087;50.226;8.682;2023-03-01T07:28:06;2.30;99.90
2162;DHT22;1087;50.226;8.682;2023-03-01T07:30:31;2.40;99.90
2162;DHT22;1087;50.226;8.682;2023-03-01T07:32:58;2.40;99.90
2162;DHT22;1087;50.226;8.682;2023-03-01T07:35:25;2.20;99.90
2162;DHT22;1087;50.226;8.682;2023-03-01T07:37:51;2.30;99.90
2162;DHT22;1087;50.226;8.682;2023-03-01T07:40:17;2.30;99.90
2162;DHT22;1087;50.226;8.682;2023-03-01T07:42:42;2.20;99.90
2162;DHT22;1087;50.226;8.682;2023-03-01T07:45:08;2.30;99.90
2162;DHT22;1087;50.226;8.682;2023-03-01T07:47:35;2.20;99.90
2162;DHT22;1087;50.226;8.682;2023-03-01T07:50:00;2.30;99.90
2162;DHT22;1087;50.226;8.682;2023-03-01T07:52:29;2.10;99.90
2162;DHT22;1087;50.226;8.682;2023-03-01T07:54:56;2.00;99.90
2162;DHT22;1087;50.226;8.682;2023-03-01T07:57:21;2.00;99.90
2162;DHT22;1087;50.226;8.682;2023-03-01T07:59:47;2.20;99.90
2162;DHT22;1087;50.226;8.682;2023-03-01T08:02:12;2.10;99.90
2162;DHT22;1087;50.226;8.682;2023-03-01T08:04:40;2.00;99.90
2162;DHT22;1087;50.226;8.682;2023-03-01T08:07:06;2.00;99.90
2162;DHT22;1087;50.226;8.682;2023-03-01T08:09:34;2.00;99.90
2162;DHT22;1087;50.226;8.682;2023-03-01T08:12:00;2.20;99.90
2162;DHT22;1087;50.226;8.682;2023-03-01T08:14:25;2.30;99.90
2162;DHT22;1087;50.226;8.682;2023-03-01T08:16:51;2.30;99.90
2162;DHT22;1087;50.226;8.682;2023-03-01T08:19:16;2.40;99.90
2162;DHT22;1087;50.226;8.682;2023-03-01T08:21:42;2.40;99.90
2162;DHT22;1087;50.226;8.682;2023-03-01T08:24:08;2.50;99.90
2162;DHT22;1087;50.226;8.682;2023-03-01T08:26:36;2.30;99.90
2162;DHT22;1087;50.226;8.682;2023-03-01T08:29:01;2.40;99.90
2162;DHT22;1087;50.226;8.682;2023-03-01T08:31:38;2.40;99.90
2162;DHT22;1087;50.226;8.682;2023-03-01T08:34:09;2.50;99.90
2162;DHT22;1087;50.226;8.682;2023-03-01T08:36:38;2.60;99.90
2162;DHT22;1087;50.226;8.682;2023-03-01T08:39:04;2.70;99.90
2162;DHT22;1087;50.226;8.682;2023-03-01T08:41:30;2.80;99.90
2162;DHT22;1087;50.226;8.682;2023-03-01T08:43:56;2.90;99.90
2162;DHT22;1087;50.226;8.682;2023-03-01T08:46:36;2.80;99.90
2162;DHT22;1087;50.226;8.682;2023-03-01T08:49:11;3.10;99.90
2162;DHT22;1087;50.226;8.682;2023-03-01T08:51:38;3.10;99.90
2162;DHT22;1087;50.226;8.682;2023-03-01T08:54:05;3.10;99.90
2162;DHT22;1087;50.226;8.682;2023-03-01T08:56:31;3.10;99.90
2162;DHT22;1087;50.226;8.682;2023-03-01T08:58:57;3.30;99.90
2162;DHT22;1087;50.226;8.682;2023-03-01T09:01:22;3.30;99.90
2162;DHT22;1087;50.226;8.682;2023-03-01T09:03:48;3.40;99.90
2162;DHT22;1087;50.226;8.682;2023-03-01T09:06:14;3.40;99.90
2162;DHT22;1087;50.226;8.682;2023-03-01T09:08:42;3.40;99.90
2162;DHT22;1087;50.226;8.682;2023-03-01T09:11:10;3.40;99.90
2162;DHT22;1087;50.226;8.682;2023-03-01T09:13:36;3.50;99.90
2162;DHT22;1087;50.226;8.682;2023-03-01T09:16:03;3.60;99.90
2162;DHT22;1087;50.226;8.682;2023-03-01T09:18:29;3.50;99.90
2162;DHT22;1087;50.226;8.682;2023-03-01T09:21:06;3.50;99.90
2162;DHT22;1087;50.226;8.682;2023-03-01T09:23:45;3.60;99.90
2162;DHT22;1087;50.226;8.682;2023-03-01T09:26:21;3.70;99.90
2162;DHT22;1087;50.226;8.682;2023-03-01T09:28:48;3.80;99.90
2162;DHT22;1087;50.226;8.682;2023-03-01T09:31:15;3.90;99.90
2162;DHT22;1087;50.226;8.682;2023-03-01T09:33:42;4.00;99.90
2162;DHT22;1087;50.226;8.682;2023-03-01T09:36:12;3.90;99.90
2162;DHT22;1087;50.226;8.682;2023-03-01T09:38:38;4.10;99.90
2162;DHT22;1087;50.226;8.682;2023-03-01T09:41:28;4.30;99.90
2162;DHT22;1087;50.226;8.682;2023-03-01T09:43:59;4.30;99.90
2162;DHT22;1087;50.226;8.682;2023-03-01T09:46:30;4.30;99.90
2162;DHT22;1087;50.226;8.682;2023-03-01T09:49:09;4.40;99.90
2162;DHT22;1087;50.226;8.682;2023-03-01T09:51:37;4.30;99.90
2162;DHT22;1087;50.226;8.682;2023-03-01T09:54:03;4.30;99.90
2162;DHT22;1087;50.226;8.682;2023-03-01T09:56:47;4.40;99.90
2162;DHT22;1087;50.226;8.682;2023-03-01T09:59:30;4.30;99.90
2162;DHT22;1087;50.226;8.682;2023-03-01T10:02:16;4.30;99.90
2162;DHT22;1087;50.226;8.682;2023-03-01T10:10:10;4.60;99.90
2162;DHT22;1087;50.226;8.682;2023-03-01T10:12:40;4.50;99.90
2162;DHT22;1087;50.226;8.682;2023-03-01T10:15:14;4.60;99.90
2162;DHT22;1087;50.226;8.682;2023-03-01T10:20:24;4.70;99.90
2162;DHT22;1087;50.226;8.682;2023-03-01T10:22:50;4.80;99.90
2162;DHT22;1087;50.226;8.682;2023-03-01T10:30:47;5.00;99.90
2162;DHT22;1087;50.226;8.682;2023-03-01T10:33:20;5.10;99.90
2162;DHT22;1087;50.226;8.682;2023-03-01T10:35:46;5.10;99.90
2162;DHT22;1087;50.226;8.682;2023-03-01T10:38:14;5.20;99.90
2162;DHT22;1087;50.226;8.682;2023-03-01T10:43:28;5.20;99.90
2162;DHT22;1087;50.226;8.682;2023-03-01T10:45:56;5.20;99.90
2162;DHT22;1087;50.226;8.682;2023-03-01T10:48:25;5.30;99.90
2162;DHT22;1087;50.226;8.682;2023-03-01T10:53:40;5.40;99.90
2162;DHT22;1087;50.226;8.682;2023-03-01T10:56:11;5.40;99.90
2162;DHT22;1087;50.226;8.682;2023-03-01T11:01:27;5.60;99.90
2162;DHT22;1087;50.226;8.682;2023-03-01T11:06:31;5.70;99.90
2162;DHT22;1087;50.226;8.682;2023-03-01T11:08:56;5.70;99.90
2162;DHT22;1087;50.226;8.682;2023-03-01T11:11:35;5.70;99.90
2162;DHT22;1087;50.226;8.682;2023-03-01T11:14:16;5.80;99.90
2162;DHT22;1087;50.226;8.682;2023-03-01T11:16:45;5.80;99.90
2162;DHT22;1087;50.226;8.682;2023-03-01T11:22:05;5.80;99.90
2162;DHT22;1087;50.226;8.682;2023-03-01T11:24:45;5.90;99.90
2162;DHT22;1087;50.226;8.682;2023-03-01T11:29:59;6.00;99.90
2162;DHT22;1087;50.226;8.682;2023-03-01T11:32:34;6.10;99.90
2162;DHT22;1087;50.226;8.682;2023-03-01T11:35:14;6.10;99.90
2162;DHT22;1087;50.226;8.682;2023-03-01T11:40:25;6.30;99.90
2162;DHT22;1087;50.226;8.682;2023-03-01T11:43:29;6.30;99.90
2162;DHT22;1087;50.226;8.682;2023-03-01T11:46:38;6.30;99.90
2162;DHT22;1087;50.226;8.682;2023-03-01T12:08:18;6.60;99.90
2162;DHT22;1087;50.226;8.682;2023-03-01T12:11:38;6.70;99.90
2162;DHT22;1087;50.226;8.682;2023-03-01T12:16:56;6.70;99.90
2162;DHT22;1087;50.226;8.682;2023-03-01T12:23:13;6.80;99.90
2162;DHT22;1087;50.226;8.682;2023-03-01T12:28:19;6.90;99.90
2162;DHT22;1087;50.226;8.682;2023-03-01T12:36:26;6.90;99.90
2162;DHT22;1087;50.226;8.682;2023-03-01T12:41:53;7.00;99.90
2162;DHT22;1087;50.226;8.682;2023-03-01T12:49:41;7.10;99.90
2162;DHT22;1087;50.226;8.682;2023-03-01T12:54:49;7.20;99.90
2162;DHT22;1087;50.226;8.682;2023-03-01T12:57:29;7.30;99.90
2162;DHT22;1087;50.226;8.682;2023-03-01T13:00:35;7.40;99.90
2162;DHT22;1087;50.226;8.682;2023-03-01T13:09:04;7.40;99.90
2162;DHT22;1087;50.226;8.682;2023-03-01T13:11:32;7.40;99.90
2162;DHT22;1087;50.226;8.682;2023-03-01T13:16:46;7.40;99.90
2162;DHT22;1087;50.226;8.682;2023-03-01T13:19:27;7.40;99.90
2162;DHT22;1087;50.226;8.682;2023-03-01T13:21:57;7.40;99.90
2162;DHT22;1087;50.226;8.682;2023-03-01T13:24:29;7.40;99.90
2162;DHT22;1087;50.226;8.682;2023-03-01T13:27:21;7.50;99.90
2162;DHT22;1087;50.226;8.682;2023-03-01T13:29:56;7.60;99.90
2162;DHT22;1087;50.226;8.682;2023-03-01T13:32:30;7.50;99.90
2162;DHT22;1087;50.226;8.682;2023-03-01T13:35:03;7.70;99.90
2162;DHT22;1087;50.226;8.682;2023-03-01T13:37:39;7.70;99.90
2162;DHT22;1087;50.226;8.682;2023-03-01T13:42:52;7.70;99.90
2162;DHT22;1087;50.226;8.682;2023-03-01T13:45:25;7.70;99.90
2162;DHT22;1087;50.226;8.682;2023-03-01T13:50:50;7.70;99.90
2162;DHT22;1087;50.226;8.682;2023-03-01T13:53:23;7.70;99.90
2162;DHT22;1087;50.226;8.682;2023-03-01T13:55:56;7.80;99.90
2162;DHT22;1087;50.226;8.682;2023-03-01T13:58:48;7.80;99.90
2162;DHT22;1087;50.226;8.682;2023-03-01T14:01:34;7.90;99.90
2162;DHT22;1087;50.226;8.682;2023-03-01T14:04:00;7.90;99.90
2162;DHT22;1087;50.226;8.682;2023-03-01T14:06:32;7.90;99.90
2162;DHT22;1087;50.226;8.682;2023-03-01T14:09:14;7.90;99.90
2162;DHT22;1087;50.226;8.682;2023-03-01T14:12:06;7.80;99.90
2162;DHT22;1087;50.226;8.682;2023-03-01T14:14:45;7.90;99.90
2162;DHT22;1087;50.226;8.682;2023-03-01T14:17:26;7.80;99.90
2162;DHT22;1087;50.226;8.682;2023-03-01T14:20:02;7.80;99.90
2162;DHT22;1087;50.226;8.682;2023-03-01T14:22:32;7.90;99.90
2162;DHT22;1087;50.226;8.682;2023-03-01T14:25:05;7.90;99.90
2162;DHT22;1087;50.226;8.682;2023-03-01T14:27:36;7.90;99.90
2162;DHT22;1087;50.226;8.682;2023-03-01T14:30:12;7.90;99.90
2162;DHT22;1087;50.226;8.682;2023-03-01T14:32:39;8.00;99.90
2162;DHT22;1087;50.226;8.682;2023-03-01T14:35:21;7.90;99.90
2162;DHT22;1087;50.226;8.682;2023-03-01T14:37:47;7.90;99.90
2162;DHT22;1087;50.226;8.682;2023-03-01T14:40:41;8.00;99.90
2162;DHT22;1087;50.226;8.682;2023-03-01T14:43:12;8.10;99.90
2162;DHT22;1087;50.226;8.682;2023-03-01T14:45:47;8.00;99.90
2162;DHT22;1087;50.226;8.682;2023-03-01T14:48:13;7.80;99.90
2162;DHT22;1087;50.226;8.682;2023-03-01T14:50:42;7.80;99.90
2162;DHT22;1087;50.226;8.682;2023-03-01T14:53:19;7.80;99.90
2162;DHT22;1087;50.226;8.682;2023-03-01T14:55:48;7.80;99.90
2162;DHT22;1087;50.226;8.682;2023-03-01T14:58:20;7.90;99.90
2162;DHT22;1087;50.226;8.682;2023-03-01T15:03:31;7.80;99.90
2162;DHT22;1087;50.226;8.682;2023-03-01T15:06:00;7.70;99.90
2162;DHT22;1087;50.226;8.682;2023-03-01T15:08:26;7.60;99.90
2162;DHT22;1087;50.226;8.682;2023-03-01T15:13:25;7.70;99.90
2162;DHT22;1087;50.226;8.682;2023-03-01T15:16:00;7.80;99.90
2162;DHT22;1087;50.226;8.682;2023-03-01T15:18:28;7.70;99.90
2162;DHT22;1087;50.226;8.682;2023-03-01T15:20:55;7.70;99.90
2162;DHT22;1087;50.226;8.682;2023-03-01T15:23:27;7.70;99.90
2162;DHT22;1087;50.226;8.682;2023-03-01T15:25:54;7.70;99.90
2162;DHT22;1087;50.226;8.682;2023-03-01T15:30:57;7.70;99.90
2162;DHT22;1087;50.226;8.682;2023-03-01T15:33:35;7.70;99.90
2162;DHT22;1087;50.226;8.682;2023-03-01T15:36:03;7.60;99.90
2162;DHT22;1087;50.226;8.682;2023-03-01T15:38:59;7.60;99.90
2162;DHT22;1087;50.226;8.682;2023-03-01T15:41:47;7.60;99.90
2162;DHT22;1087;50.226;8.682;2023-03-01T15:44:28;7.60;99.90
2162;DHT22;1087;50.226;8.682;2023-03-01T15:46:54;7.60;99.90
2162;DHT22;1087;50.226;8.682;2023-03-01T15:51:51;7.60;99.90
2162;DHT22;1087;50.226;8.682;2023-03-01T15:54:20;7.60;99.90
2162;DHT22;1087;50.226;8.682;2023-03-01T15:56:46;7.60;99.90
2162;DHT22;1087;50.226;8.682;2023-03-01T15:59:12;7.50;99.90
2162;DHT22;1087;50.226;8.682;2023-03-01T16:01:43;7.40;99.90
2162;DHT22;1087;50.226;8.682;2023-03-01T16:04:10;7.30;99.90
2162;DHT22;1087;50.226;8.682;2023-03-01T16:06:38;7.30;99.90
2162;DHT22;1087;50.226;8.682;2023-03-01T16:09:05;7.30;99.90
2162;DHT22;1087;50.226;8.682;2023-03-01T16:11:31;7.30;99.90
2162;DHT22;1087;50.226;8.682;2023-03-01T16:13:57;7.20;99.90
2162;DHT22;1087;50.226;8.682;2023-03-01T16:16:23;7.20;99.90
2162;DHT22;1087;50.226;8.682;2023-03-01T16:18:49;7.20;99.90
2162;DHT22;1087;50.226;8.682;2023-03-01T16:21:24;7.10;99.90
2162;DHT22;1087;50.226;8.682;2023-03-01T16:23:50;7.10;99.90
2162;DHT22;1087;50.226;8.682;2023-03-01T16:26:16;7.20;99.90
2162;DHT22;1087;50.226;8.682;2023-03-01T16:28:43;7.20;99.90
2162;DHT22;1087;50.226;8.682;2023-03-01T16:31:09;7.10;99.90
2162;DHT22;1087;50.226;8.682;2023-03-01T16:33:35;7.10;99.90
2162;DHT22;1087;50.226;8.682;2023-03-01T16:36:09;7.10;99.90
2162;DHT22;1087;50.226;8.682;2023-03-01T16:38:35;7.00;99.90
2162;DHT22;1087;50.226;8.682;2023-03-01T16:41:01;7.00;99.90
2162;DHT22;1087;50.226;8.682;2023-03-01T16:43:26;6.80;99.90
2162;DHT22;1087;50.226;8.682;2023-03-01T16:45:52;6.80;99.90
2162;DHT22;1087;50.226;8.682;2023-03-01T16:48:18;6.80;99.90
2162;DHT22;1087;50.226;8.682;2023-03-01T16:50:44;6.80;99.90
2162;DHT22;1087;50.226;8.682;2023-03-01T16:53:09;6.80;99.90
2162;DHT22;1087;50.226;8.682;2023-03-01T16:55:35;6.70;99.90
2162;DHT22;1087;50.226;8.682;2023-03-01T16:58:01;6.70;99.90
2162;DHT22;1087;50.226;8.682;2023-03-01T17:00:28;6.70;99.90
2162;DHT22;1087;50.226;8.682;2023-03-01T17:02:54;6.60;99.90
2162;DHT22;1087;50.226;8.682;2023-03-01T17:05:19;6.70;99.90
2162;DHT22;1087;50.226;8.682;2023-03-01T17:07:47;6.60;99.90
2162;DHT22;1087;50.226;8.682;2023-03-01T17:10:13;6.60;99.90
2162;DHT22;1087;50.226;8.682;2023-03-01T17:12:38;6.50;99.90
2162;DHT22;1087;50.226;8.682;2023-03-01T17:15:05;6.50;99.90
2162;DHT22;1087;50.226;8.682;2023-03-01T17:17:31;6.50;99.90
2162;DHT22;1087;50.226;8.682;2023-03-01T17:19:57;6.40;99.90
2162;DHT22;1087;50.226;8.682;2023-03-01T17:22:22;6.20;99.90
2162;DHT22;1087;50.226;8.682;2023-03-01T17:24:48;6.30;99.90
2162;DHT22;1087;50.226;8.682;2023-03-01T17:27:14;6.30;99.90
2162;DHT22;1087;50.226;8.682;2023-03-01T17:29:40;6.30;99.90
2162;DHT22;1087;50.226;8.682;2023-03-01T17:32:07;6.10;99.90
2162;DHT22;1087;50.226;8.682;2023-03-01T17:34:33;6.00;99.90
2162;DHT22;1087;50.226;8.682;2023-03-01T17:36:59;6.00;99.90
2162;DHT22;1087;50.226;8.682;2023-03-01T17:39:25;6.10;99.90
2162;DHT22;1087;50.226;8.682;2023-03-01T17:41:55;6.20;99.90
2162;DHT22;1087;50.226;8.682;2023-03-01T17:44:22;6.30;99.90
2162;DHT22;1087;50.226;8.682;2023-03-01T17:46:47;6.20;99.90
2162;DHT22;1087;50.226;8.682;2023-03-01T17:49:13;6.10;99.90
2162;DHT22;1087;50.226;8.682;2023-03-01T17:51:39;6.00;99.90
2162;DHT22;1087;50.226;8.682;2023-03-01T17:54:04;5.90;99.90
2162;DHT22;1087;50.226;8.682;2023-03-01T17:56:30;5.80;99.90
2162;DHT22;1087;50.226;8.682;2023-03-01T17:58:59;5.80;99.90
2162;DHT22;1087;50.226;8.682;2023-03-01T18:01:25;6.00;99.90
2162;DHT22;1087;50.226;8.682;2023-03-01T18:03:51;6.00;99.90
2162;DHT22;1087;50.226;8.682;2023-03-01T18:06:20;6.00;99.90
2162;DHT22;1087;50.226;8.682;2023-03-01T18:08:46;6.10;99.90
2162;DHT22;1087;50.226;8.682;2023-03-01T18:11:13;6.00;99.90
2162;DHT22;1087;50.226;8.682;2023-03-01T18:13:39;6.00;99.90
2162;DHT22;1087;50.226;8.682;2023-03-01T18:16:10;6.00;99.90
2162;DHT22;1087;50.226;8.682;2023-03-01T18:18:36;5.90;99.90
2162;DHT22;1087;50.226;8.682;2023-03-01T18:21:02;5.70;99.90